sensor_id;sensor_type;location;lat;lon;timestamp;temperature;humidity
69999;DHT22;57339;52.156;5.372;2023-11-21T00:00:03;8.00;94.70
69999;DHT22;57339;52.156;5.372;2023-11-21T00:02:30;8.00;94.80
69999;DHT22;57339;52.156;5.372;2023-11-21T00:04:57;8.00;94.90
69999;DHT22;57339;52.156;5.372;2023-11-21T00:07:23;8.00;95.00
69999;DHT22;57339;52.156;5.372;2023-11-21T00:09:50;7.90;95.00
69999;DHT22;57339;52.156;5.372;2023-11-21T00:12:17;8.00;95.00
69999;DHT22;57339;52.156;5.372;2023-11-21T00:14:44;7.90;95.00
69999;DHT22;57339;52.156;5.372;2023-11-21T00:17:11;8.00;95.00
69999;DHT22;57339;52.156;5.372;2023-11-21T00:19:40;7.90;94.90
69999;DHT22;57339;52.156;5.372;2023-11-21T00:22:07;7.90;95.00
69999;DHT22;57339;52.156;5.372;2023-11-21T00:24:34;7.90;95.00
69999;DHT22;57339;52.156;5.372;2023-11-21T00:27:01;7.90;95.00
69999;DHT22;57339;52.156;5.372;2023-11-21T00:29:28;8.00;95.00
69999;DHT22;57339;52.156;5.372;2023-11-21T00:31:55;7.90;95.00
69999;DHT22;57339;52.156;5.372;2023-11-21T00:34:22;7.90;95.10
69999;DHT22;57339;52.156;5.372;2023-11-21T00:36:49;8.00;95.10
69999;DHT22;57339;52.156;5.372;2023-11-21T00:39:16;7.90;95.00
69999;DHT22;57339;52.156;5.372;2023-11-21T00:41:46;8.00;95.10
69999;DHT22;57339;52.156;5.372;2023-11-21T00:44:12;7.90;95.00
69999;DHT22;57339;52.156;5.372;2023-11-21T00:46:40;7.90;95.00
69999;DHT22;57339;52.156;5.372;2023-11-21T00:49:07;7.90;95.00
69999;DHT22;57339;52.156;5.372;2023-11-21T00:51:34;7.90;94.90
69999;DHT22;57339;52.156;5.372;2023-11-21T00:54:01;7.90;94.90
69999;DHT22;57339;52.156;5.372;2023-11-21T00:56:28;7.90;94.90
69999;DHT22;57339;52.156;5.372;2023-11-21T00:58:55;7.90;94.90
69999;DHT22;57339;52.156;5.372;2023-11-21T01:01:22;7.90;94.80
69999;DHT22;57339;52.156;5.372;2023-11-21T01:03:49;7.90;94.80
69999;DHT22;57339;52.156;5.372;2023-11-21T01:06:16;7.90;94.80
69999;DHT22;57339;52.156;5.372;2023-11-21T01:08:44;7.90;94.80
69999;DHT22;57339;52.156;5.372;2023-11-21T01:11:11;8.00;94.80
69999;DHT22;57339;52.156;5.372;2023-11-21T01:13:39;7.90;94.80
69999;DHT22;57339;52.156;5.372;2023-11-21T01:16:08;7.90;94.70
69999;DHT22;57339;52.156;5.372;2023-11-21T01:18:35;7.90;94.80
69999;DHT22;57339;52.156;5.372;2023-11-21T01:21:02;7.90;94.80
69999;DHT22;57339;52.156;5.372;2023-11-21T01:23:30;7.90;94.80
69999;DHT22;57339;52.156;5.372;2023-11-21T01:25:57;7.90;94.80
69999;DHT22;57339;52.156;5.372;2023-11-21T01:28:24;8.00;94.80
69999;DHT22;57339;52.156;5.372;2023-11-21T01:30:51;8.00;94.80
69999;DHT22;57339;52.156;5.372;2023-11-21T01:33:18;8.00;94.80
69999;DHT22;57339;52.156;5.372;2023-11-21T01:35:45;8.00;94.90
69999;DHT22;57339;52.156;5.372;2023-11-21T01:38:12;8.00;94.90
69999;DHT22;57339;52.156;5.372;2023-11-21T01:40:39;8.00;94.90
69999;DHT22;57339;52.156;5.372;2023-11-21T01:43:06;8.00;94.90
69999;DHT22;57339;52.156;5.372;2023-11-21T01:45:33;8.00;94.90
69999;DHT22;57339;52.156;5.372;2023-11-21T01:48:01;8.10;94.90
69999;DHT22;57339;52.156;5.372;2023-11-21T01:50:28;8.10;95.00
69999;DHT22;57339;52.156;5.372;2023-11-21T01:52:56;8.10;94.80
69999;DHT22;57339;52.156;5.372;2023-11-21T01:55:23;8.10;94.80
69999;DHT22;57339;52.156;5.372;2023-11-21T01:57:55;8.20;95.00
69999;DHT22;57339;52.156;5.372;2023-11-21T02:00:22;8.20;95.00
69999;DHT22;57339;52.156;5.372;2023-11-21T02:02:49;8.20;95.00
69999;DHT22;57339;52.156;5.372;2023-11-21T02:05:17;8.30;95.00
69999;DHT22;57339;52.156;5.372;2023-11-21T02:07:46;8.30;95.00
69999;DHT22;57339;52.156;5.372;2023-11-21T02:10:13;8.30;95.00
69999;DHT22;57339;52.156;5.372;2023-11-21T02:12:46;8.30;95.10
69999;DHT22;57339;52.156;5.372;2023-11-21T02:15:14;8.40;95.10
69999;DHT22;57339;52.156;5.372;2023-11-21T02:17:42;8.40;95.20
69999;DHT22;57339;52.156;5.372;2023-11-21T02:20:12;8.40;95.30
69999;DHT22;57339;52.156;5.372;2023-11-21T02:22:43;8.40;95.30
69999;DHT22;57339;52.156;5.372;2023-11-21T02:25:10;8.40;95.30
69999;DHT22;57339;52.156;5.372;2023-11-21T02:27:38;8.40;95.40
69999;DHT22;57339;52.156;5.372;2023-11-21T02:30:05;8.40;95.50
69999;DHT22;57339;52.156;5.372;2023-11-21T02:32:32;8.40;95.50
69999;DHT22;57339;52.156;5.372;2023-11-21T02:34:59;8.50;95.50
69999;DHT22;57339;52.156;5.372;2023-11-21T02:37:27;8.50;95.40
69999;DHT22;57339;52.156;5.372;2023-11-21T02:39:53;8.50;95.40
69999;DHT22;57339;52.156;5.372;2023-11-21T02:42:20;8.60;95.40
69999;DHT22;57339;52.156;5.372;2023-11-21T02:44:47;8.60;95.40
69999;DHT22;57339;52.156;5.372;2023-11-21T02:47:14;8.60;95.40
69999;DHT22;57339;52.156;5.372;2023-11-21T02:49:41;8.70;95.40
69999;DHT22;57339;52.156;5.372;2023-11-21T02:52:08;8.70;95.30
69999;DHT22;57339;52.156;5.372;2023-11-21T02:54:35;8.70;95.40
69999;DHT22;57339;52.156;5.372;2023-11-21T02:57:02;8.80;95.30
69999;DHT22;57339;52.156;5.372;2023-11-21T02:59:29;8.80;95.40
69999;DHT22;57339;52.156;5.372;2023-11-21T03:01:55;8.80;95.30
69999;DHT22;57339;52.156;5.372;2023-11-21T03:04:23;8.80;95.40
69999;DHT22;57339;52.156;5.372;2023-11-21T03:06:51;8.80;95.40
69999;DHT22;57339;52.156;5.372;2023-11-21T03:09:18;8.90;95.50
69999;DHT22;57339;52.156;5.372;2023-11-21T03:11:44;8.80;95.40
69999;DHT22;57339;52.156;5.372;2023-11-21T03:14:11;8.80;95.40
69999;DHT22;57339;52.156;5.372;2023-11-21T03:16:39;8.90;95.40
69999;DHT22;57339;52.156;5.372;2023-11-21T03:19:06;8.90;95.40
69999;DHT22;57339;52.156;5.372;2023-11-21T03:21:33;8.90;95.40
69999;DHT22;57339;52.156;5.372;2023-11-21T03:24:00;8.90;95.40
69999;DHT22;57339;52.156;5.372;2023-11-21T03:26:26;8.90;95.40
69999;DHT22;57339;52.156;5.372;2023-11-21T03:28:53;8.90;95.40
69999;DHT22;57339;52.156;5.372;2023-11-21T03:31:20;8.90;95.30
69999;DHT22;57339;52.156;5.372;2023-11-21T03:33:47;9.00;95.30
69999;DHT22;57339;52.156;5.372;2023-11-21T03:36:14;8.90;95.20
69999;DHT22;57339;52.156;5.372;2023-11-21T03:38:41;8.90;95.20
69999;DHT22;57339;52.156;5.372;2023-11-21T03:41:08;8.90;95.20
69999;DHT22;57339;52.156;5.372;2023-11-21T03:43:36;9.00;95.10
69999;DHT22;57339;52.156;5.372;2023-11-21T03:46:03;8.90;95.10
69999;DHT22;57339;52.156;5.372;2023-11-21T03:48:30;9.00;95.20
69999;DHT22;57339;52.156;5.372;2023-11-21T03:50:57;9.00;95.20
69999;DHT22;57339;52.156;5.372;2023-11-21T03:53:24;9.00;95.20
69999;DHT22;57339;52.156;5.372;2023-11-21T03:55:51;9.00;95.30
69999;DHT22;57339;52.156;5.372;2023-11-21T03:58:18;9.00;95.30
69999;DHT22;57339;52.156;5.372;2023-11-21T04:00:45;9.00;95.40
69999;DHT22;57339;52.156;5.372;2023-11-21T04:03:12;9.00;95.40
69999;DHT22;57339;52.156;5.372;2023-11-21T04:05:40;9.00;95.40
69999;DHT22;57339;52.156;5.372;2023-11-21T04:08:07;9.00;95.40
69999;DHT22;57339;52.156;5.372;2023-11-21T04:10:34;9.00;95.30
69999;DHT22;57339;52.156;5.372;2023-11-21T04:13:00;9.10;95.40
69999;DHT22;57339;52.156;5.372;2023-11-21T04:15:27;9.10;95.40
69999;DHT22;57339;52.156;5.372;2023-11-21T04:17:54;9.00;95.30
69999;DHT22;57339;52.156;5.372;2023-11-21T04:20:21;9.00;95.40
69999;DHT22;57339;52.156;5.372;2023-11-21T04:22:48;9.00;95.40
69999;DHT22;57339;52.156;5.372;2023-11-21T04:25:15;9.00;95.40
69999;DHT22;57339;52.156;5.372;2023-11-21T04:27:44;9.00;95.40
69999;DHT22;57339;52.156;5.372;2023-11-21T04:30:12;9.10;95.50
69999;DHT22;57339;52.156;5.372;2023-11-21T04:32:42;9.10;95.50
69999;DHT22;57339;52.156;5.372;2023-11-21T04:35:10;9.10;95.50
69999;DHT22;57339;52.156;5.372;2023-11-21T04:37:37;9.10;95.50
69999;DHT22;57339;52.156;5.372;2023-11-21T04:40:04;9.10;95.50
69999;DHT22;57339;52.156;5.372;2023-11-21T04:42:32;9.20;95.50
69999;DHT22;57339;52.156;5.372;2023-11-21T04:44:59;9.20;95.50
69999;DHT22;57339;52.156;5.372;2023-11-21T04:47:26;9.20;95.50
69999;DHT22;57339;52.156;5.372;2023-11-21T04:49:53;9.20;95.50
69999;DHT22;57339;52.156;5.372;2023-11-21T04:52:20;9.20;95.50
69999;DHT22;57339;52.156;5.372;2023-11-21T04:54:47;9.30;95.50
69999;DHT22;57339;52.156;5.372;2023-11-21T04:57:14;9.30;95.50
69999;DHT22;57339;52.156;5.372;2023-11-21T04:59:41;9.30;95.40
69999;DHT22;57339;52.156;5.372;2023-11-21T05:02:08;9.30;95.40
69999;DHT22;57339;52.156;5.372;2023-11-21T05:04:40;9.30;95.40
69999;DHT22;57339;52.156;5.372;2023-11-21T05:07:08;9.30;95.40
69999;DHT22;57339;52.156;5.372;2023-11-21T05:09:34;9.30;95.40
69999;DHT22;57339;52.156;5.372;2023-11-21T05:12:01;9.30;95.50
69999;DHT22;57339;52.156;5.372;2023-11-21T05:14:28;9.30;95.60
69999;DHT22;57339;52.156;5.372;2023-11-21T05:16:55;9.30;95.60
69999;DHT22;57339;52.156;5.372;2023-11-21T05:19:22;9.30;95.70
69999;DHT22;57339;52.156;5.372;2023-11-21T05:21:49;9.40;95.80
69999;DHT22;57339;52.156;5.372;2023-11-21T05:24:16;9.40;95.80
69999;DHT22;57339;52.156;5.372;2023-11-21T05:26:43;9.40;95.70
69999;DHT22;57339;52.156;5.372;2023-11-21T05:29:11;9.40;95.70
69999;DHT22;57339;52.156;5.372;2023-11-21T05:31:37;9.50;95.70
69999;DHT22;57339;52.156;5.372;2023-11-21T05:34:04;9.50;95.70
69999;DHT22;57339;52.156;5.372;2023-11-21T05:36:31;9.50;95.70
69999;DHT22;57339;52.156;5.372;2023-11-21T05:38:58;9.50;95.80
69999;DHT22;57339;52.156;5.372;2023-11-21T05:41:25;9.50;95.70
69999;DHT22;57339;52.156;5.372;2023-11-21T05:43:52;9.60;95.70
69999;DHT22;57339;52.156;5.372;2023-11-21T05:46:19;9.60;95.70
69999;DHT22;57339;52.156;5.372;2023-11-21T05:48:46;9.60;95.70
69999;DHT22;57339;52.156;5.372;2023-11-21T05:51:16;9.60;95.70
69999;DHT22;57339;52.156;5.372;2023-11-21T05:53:42;9.70;95.80
69999;DHT22;57339;52.156;5.372;2023-11-21T05:56:09;9.70;95.70
69999;DHT22;57339;52.156;5.372;2023-11-21T05:58:36;9.70;95.70
69999;DHT22;57339;52.156;5.372;2023-11-21T06:01:05;9.70;95.60
69999;DHT22;57339;52.156;5.372;2023-11-21T06:03:32;9.70;95.60
69999;DHT22;57339;52.156;5.372;2023-11-21T06:06:01;9.70;95.60
69999;DHT22;57339;52.156;5.372;2023-11-21T06:08:28;9.70;95.60
69999;DHT22;57339;52.156;5.372;2023-11-21T06:10:55;9.70;95.60
69999;DHT22;57339;52.156;5.372;2023-11-21T06:13:22;9.70;95.70
69999;DHT22;57339;52.156;5.372;2023-11-21T06:15:49;9.70;96.00
69999;DHT22;57339;52.156;5.372;2023-11-21T06:18:16;9.70;95.80
69999;DHT22;57339;52.156;5.372;2023-11-21T06:20:46;9.70;95.80
69999;DHT22;57339;52.156;5.372;2023-11-21T06:23:16;9.70;95.70
69999;DHT22;57339;52.156;5.372;2023-11-21T06:25:46;9.70;95.70
69999;DHT22;57339;52.156;5.372;2023-11-21T06:28:14;9.80;95.80
69999;DHT22;57339;52.156;5.372;2023-11-21T06:30:41;9.80;95.80
69999;DHT22;57339;52.156;5.372;2023-11-21T06:33:08;9.80;95.90
69999;DHT22;57339;52.156;5.372;2023-11-21T06:35:35;9.80;95.90
69999;DHT22;57339;52.156;5.372;2023-11-21T06:38:01;9.80;96.00
69999;DHT22;57339;52.156;5.372;2023-11-21T06:40:29;9.80;96.10
69999;DHT22;57339;52.156;5.372;2023-11-21T06:42:55;9.80;96.10
69999;DHT22;57339;52.156;5.372;2023-11-21T06:45:22;9.80;96.10
69999;DHT22;57339;52.156;5.372;2023-11-21T06:47:51;9.80;96.10
69999;DHT22;57339;52.156;5.372;2023-11-21T06:50:19;9.90;96.10
69999;DHT22;57339;52.156;5.372;2023-11-21T06:52:45;9.90;96.00
69999;DHT22;57339;52.156;5.372;2023-11-21T06:55:13;9.90;96.00
69999;DHT22;57339;52.156;5.372;2023-11-21T06:57:40;9.90;96.00
69999;DHT22;57339;52.156;5.372;2023-11-21T07:00:08;9.90;96.00
69999;DHT22;57339;52.156;5.372;2023-11-21T07:02:35;10.00;95.90
69999;DHT22;57339;52.156;5.372;2023-11-21T07:05:02;10.10;96.00
69999;DHT22;57339;52.156;5.372;2023-11-21T07:07:29;10.00;96.00
69999;DHT22;57339;52.156;5.372;2023-11-21T07:09:56;10.00;96.10
69999;DHT22;57339;52.156;5.372;2023-11-21T07:12:23;10.00;96.20
69999;DHT22;57339;52.156;5.372;2023-11-21T07:14:50;10.00;96.20
69999;DHT22;57339;52.156;5.372;2023-11-21T07:17:17;10.10;96.20
69999;DHT22;57339;52.156;5.372;2023-11-21T07:19:44;10.10;96.20
69999;DHT22;57339;52.156;5.372;2023-11-21T07:22:11;10.20;96.20
69999;DHT22;57339;52.156;5.372;2023-11-21T07:24:38;10.20;96.20
69999;DHT22;57339;52.156;5.372;2023-11-21T07:27:05;10.20;96.10
69999;DHT22;57339;52.156;5.372;2023-11-21T07:29:31;10.20;96.10
69999;DHT22;57339;52.156;5.372;2023-11-21T07:31:58;10.30;96.10
69999;DHT22;57339;52.156;5.372;2023-11-21T07:34:26;10.30;96.00
69999;DHT22;57339;52.156;5.372;2023-11-21T07:36:52;10.40;96.00
69999;DHT22;57339;52.156;5.372;2023-11-21T07:39:19;10.40;95.90
69999;DHT22;57339;52.156;5.372;2023-11-21T07:41:46;10.50;95.90
69999;DHT22;57339;52.156;5.372;2023-11-21T07:44:13;10.50;95.80
69999;DHT22;57339;52.156;5.372;2023-11-21T07:46:41;10.60;95.80
69999;DHT22;57339;52.156;5.372;2023-11-21T07:49:08;10.60;95.70
69999;DHT22;57339;52.156;5.372;2023-11-21T07:51:35;10.70;95.70
69999;DHT22;57339;52.156;5.372;2023-11-21T07:54:02;10.70;95.70
69999;DHT22;57339;52.156;5.372;2023-11-21T07:56:29;10.70;95.70
69999;DHT22;57339;52.156;5.372;2023-11-21T07:58:55;10.70;95.70
69999;DHT22;57339;52.156;5.372;2023-11-21T08:01:22;10.80;95.70
69999;DHT22;57339;52.156;5.372;2023-11-21T08:03:49;10.80;96.20
69999;DHT22;57339;52.156;5.372;2023-11-21T08:06:16;10.90;95.80
69999;DHT22;57339;52.156;5.372;2023-11-21T08:08:43;10.90;95.80
69999;DHT22;57339;52.156;5.372;2023-11-21T08:11:10;10.90;95.80
69999;DHT22;57339;52.156;5.372;2023-11-21T08:13:37;11.00;95.80
69999;DHT22;57339;52.156;5.372;2023-11-21T08:16:04;11.00;95.70
69999;DHT22;57339;52.156;5.372;2023-11-21T08:18:31;11.10;95.70
69999;DHT22;57339;52.156;5.372;2023-11-21T08:20:58;11.10;95.70
69999;DHT22;57339;52.156;5.372;2023-11-21T08:23:25;11.20;95.70
69999;DHT22;57339;52.156;5.372;2023-11-21T08:25:53;11.20;95.70
69999;DHT22;57339;52.156;5.372;2023-11-21T08:28:20;11.20;95.70
69999;DHT22;57339;52.156;5.372;2023-11-21T08:30:47;11.20;95.90
69999;DHT22;57339;52.156;5.372;2023-11-21T08:33:13;11.20;95.70
69999;DHT22;57339;52.156;5.372;2023-11-21T08:35:41;11.30;95.60
69999;DHT22;57339;52.156;5.372;2023-11-21T08:38:08;11.30;95.60
69999;DHT22;57339;52.156;5.372;2023-11-21T08:40:35;11.30;95.60
69999;DHT22;57339;52.156;5.372;2023-11-21T08:43:02;11.30;95.60
69999;DHT22;57339;52.156;5.372;2023-11-21T08:45:29;11.40;95.70
69999;DHT22;57339;52.156;5.372;2023-11-21T08:47:56;11.40;95.70
69999;DHT22;57339;52.156;5.372;2023-11-21T08:50:23;11.40;95.60
69999;DHT22;57339;52.156;5.372;2023-11-21T08:52:51;11.50;95.60
69999;DHT22;57339;52.156;5.372;2023-11-21T08:55:18;11.50;95.50
69999;DHT22;57339;52.156;5.372;2023-11-21T08:57:45;11.60;95.50
69999;DHT22;57339;52.156;5.372;2023-11-21T09:00:12;11.50;95.50
69999;DHT22;57339;52.156;5.372;2023-11-21T09:02:43;11.60;95.60
69999;DHT22;57339;52.156;5.372;2023-11-21T09:05:12;11.60;95.60
69999;DHT22;57339;52.156;5.372;2023-11-21T09:07:41;11.60;95.60
69999;DHT22;57339;52.156;5.372;2023-11-21T09:10:09;11.70;95.60
69999;DHT22;57339;52.156;5.372;2023-11-21T09:12:37;11.70;95.60
69999;DHT22;57339;52.156;5.372;2023-11-21T09:15:05;11.80;95.50
69999;DHT22;57339;52.156;5.372;2023-11-21T09:17:33;11.80;95.40
69999;DHT22;57339;52.156;5.372;2023-11-21T09:20:00;11.80;95.40
69999;DHT22;57339;52.156;5.372;2023-11-21T09:22:27;11.80;95.30
69999;DHT22;57339;52.156;5.372;2023-11-21T09:24:54;11.70;95.30
69999;DHT22;57339;52.156;5.372;2023-11-21T09:27:21;11.70;95.20
69999;DHT22;57339;52.156;5.372;2023-11-21T09:29:48;11.70;95.30
69999;DHT22;57339;52.156;5.372;2023-11-21T09:32:15;11.70;95.40
69999;DHT22;57339;52.156;5.372;2023-11-21T09:34:42;11.70;95.30
69999;DHT22;57339;52.156;5.372;2023-11-21T09:37:09;11.70;95.20
69999;DHT22;57339;52.156;5.372;2023-11-21T09:39:36;11.70;95.20
69999;DHT22;57339;52.156;5.372;2023-11-21T09:42:43;11.70;95.20
69999;DHT22;57339;52.156;5.372;2023-11-21T09:45:28;11.70;94.90
69999;DHT22;57339;52.156;5.372;2023-11-21T09:47:56;11.70;95.00
69999;DHT22;57339;52.156;5.372;2023-11-21T09:50:24;11.70;95.00
69999;DHT22;57339;52.156;5.372;2023-11-21T09:53:19;11.70;95.00
69999;DHT22;57339;52.156;5.372;2023-11-21T09:55:47;11.60;95.30
69999;DHT22;57339;52.156;5.372;2023-11-21T09:58:15;11.60;94.90
69999;DHT22;57339;52.156;5.372;2023-11-21T10:00:44;11.60;94.80
69999;DHT22;57339;52.156;5.372;2023-11-21T10:03:14;11.60;94.90
69999;DHT22;57339;52.156;5.372;2023-11-21T10:05:48;11.50;94.90
69999;DHT22;57339;52.156;5.372;2023-11-21T10:08:17;11.50;94.90
69999;DHT22;57339;52.156;5.372;2023-11-21T10:10:48;11.50;94.80
69999;DHT22;57339;52.156;5.372;2023-11-21T10:13:18;11.60;94.80
69999;DHT22;57339;52.156;5.372;2023-11-21T10:15:50;11.50;94.80
69999;DHT22;57339;52.156;5.372;2023-11-21T10:18:17;11.50;94.80
69999;DHT22;57339;52.156;5.372;2023-11-21T10:20:44;11.60;94.90
69999;DHT22;57339;52.156;5.372;2023-11-21T10:23:12;11.60;95.00
69999;DHT22;57339;52.156;5.372;2023-11-21T10:25:39;11.70;95.00
69999;DHT22;57339;52.156;5.372;2023-11-21T10:28:06;11.70;95.00
69999;DHT22;57339;52.156;5.372;2023-11-21T10:30:34;11.70;94.40
69999;DHT22;57339;52.156;5.372;2023-11-21T10:33:01;11.70;94.30
69999;DHT22;57339;52.156;5.372;2023-11-21T10:38:14;11.60;94.00
69999;DHT22;57339;52.156;5.372;2023-11-21T10:40:44;11.60;94.10
69999;DHT22;57339;52.156;5.372;2023-11-21T10:43:14;11.50;94.10
69999;DHT22;57339;52.156;5.372;2023-11-21T10:45:43;11.40;94.20
69999;DHT22;57339;52.156;5.372;2023-11-21T10:48:13;11.40;94.30
69999;DHT22;57339;52.156;5.372;2023-11-21T10:50:43;11.40;94.30
69999;DHT22;57339;52.156;5.372;2023-11-21T10:53:11;11.40;94.30
69999;DHT22;57339;52.156;5.372;2023-11-21T10:55:38;11.40;94.30
69999;DHT22;57339;52.156;5.372;2023-11-21T10:58:06;11.40;94.40
69999;DHT22;57339;52.156;5.372;2023-11-21T11:00:33;11.40;94.40
69999;DHT22;57339;52.156;5.372;2023-11-21T11:03:00;11.40;94.30
69999;DHT22;57339;52.156;5.372;2023-11-21T11:05:29;11.40;94.30
69999;DHT22;57339;52.156;5.372;2023-11-21T11:08:04;11.30;94.40
69999;DHT22;57339;52.156;5.372;2023-11-21T11:10:31;11.30;94.40
69999;DHT22;57339;52.156;5.372;2023-11-21T11:12:59;11.30;94.40
69999;DHT22;57339;52.156;5.372;2023-11-21T11:15:27;11.30;94.40
69999;DHT22;57339;52.156;5.372;2023-11-21T11:17:55;11.30;94.40
69999;DHT22;57339;52.156;5.372;2023-11-21T11:20:29;11.30;94.40
69999;DHT22;57339;52.156;5.372;2023-11-21T11:29:27;11.30;94.40
69999;DHT22;57339;52.156;5.372;2023-11-21T11:32:16;11.30;94.50
69999;DHT22;57339;52.156;5.372;2023-11-21T11:35:00;11.40;94.50
69999;DHT22;57339;52.156;5.372;2023-11-21T11:37:28;11.40;94.50
69999;DHT22;57339;52.156;5.372;2023-11-21T11:39:56;11.40;94.50
69999;DHT22;57339;52.156;5.372;2023-11-21T11:42:23;11.50;94.50
69999;DHT22;57339;52.156;5.372;2023-11-21T11:44:51;11.50;94.50
69999;DHT22;57339;52.156;5.372;2023-11-21T11:47:28;11.50;94.20
69999;DHT22;57339;52.156;5.372;2023-11-21T11:50:10;11.40;94.70
69999;DHT22;57339;52.156;5.372;2023-11-21T11:52:41;11.40;94.80
69999;DHT22;57339;52.156;5.372;2023-11-21T11:55:13;11.50;94.40
69999;DHT22;57339;52.156;5.372;2023-11-21T11:57:42;11.50;94.50
69999;DHT22;57339;52.156;5.372;2023-11-21T12:00:21;11.50;94.40
69999;DHT22;57339;52.156;5.372;2023-11-21T12:02:56;11.50;94.30
69999;DHT22;57339;52.156;5.372;2023-11-21T12:05:23;11.60;94.40
69999;DHT22;57339;52.156;5.372;2023-11-21T12:07:52;11.60;94.20
69999;DHT22;57339;52.156;5.372;2023-11-21T12:10:21;11.70;94.20
69999;DHT22;57339;52.156;5.372;2023-11-21T12:12:49;11.60;94.20
69999;DHT22;57339;52.156;5.372;2023-11-21T12:15:20;11.60;94.00
69999;DHT22;57339;52.156;5.372;2023-11-21T12:17:50;11.60;94.00
69999;DHT22;57339;52.156;5.372;2023-11-21T12:20:23;11.50;94.00
69999;DHT22;57339;52.156;5.372;2023-11-21T12:22:55;11.50;93.80
69999;DHT22;57339;52.156;5.372;2023-11-21T12:25:24;11.50;94.00
69999;DHT22;57339;52.156;5.372;2023-11-21T12:27:52;11.50;94.00
69999;DHT22;57339;52.156;5.372;2023-11-21T12:30:23;11.50;94.00
69999;DHT22;57339;52.156;5.372;2023-11-21T12:32:55;11.60;94.00
69999;DHT22;57339;52.156;5.372;2023-11-21T12:35:24;11.50;93.80
69999;DHT22;57339;52.156;5.372;2023-11-21T12:37:52;11.50;93.80
69999;DHT22;57339;52.156;5.372;2023-11-21T12:40:19;11.50;93.80
69999;DHT22;57339;52.156;5.372;2023-11-21T12:42:47;11.50;93.70
69999;DHT22;57339;52.156;5.372;2023-11-21T12:45:22;11.60;93.90
69999;DHT22;57339;52.156;5.372;2023-11-21T12:47:50;11.60;93.80
69999;DHT22;57339;52.156;5.372;2023-11-21T12:50:25;11.60;93.70
69999;DHT22;57339;52.156;5.372;2023-11-21T12:52:52;11.70;93.80
69999;DHT22;57339;52.156;5.372;2023-11-21T12:55:20;11.70;93.80
69999;DHT22;57339;52.156;5.372;2023-11-21T12:57:49;11.60;93.50
69999;DHT22;57339;52.156;5.372;2023-11-21T13:00:16;11.60;93.40
69999;DHT22;57339;52.156;5.372;2023-11-21T13:02:44;11.70;93.40
69999;DHT22;57339;52.156;5.372;2023-11-21T13:05:11;11.70;93.50
69999;DHT22;57339;52.156;5.372;2023-11-21T13:07:42;11.70;93.30
69999;DHT22;57339;52.156;5.372;2023-11-21T13:10:09;11.70;93.40
69999;DHT22;57339;52.156;5.372;2023-11-21T13:12:43;11.70;93.20
69999;DHT22;57339;52.156;5.372;2023-11-21T13:15:10;11.70;93.40
69999;DHT22;57339;52.156;5.372;2023-11-21T13:17:40;11.70;93.20
69999;DHT22;57339;52.156;5.372;2023-11-21T13:20:07;11.70;93.20
69999;DHT22;57339;52.156;5.372;2023-11-21T13:22:34;11.70;93.20
69999;DHT22;57339;52.156;5.372;2023-11-21T13:25:01;11.70;93.20
69999;DHT22;57339;52.156;5.372;2023-11-21T13:27:28;11.60;93.20
69999;DHT22;57339;52.156;5.372;2023-11-21T13:29:55;11.60;93.60
69999;DHT22;57339;52.156;5.372;2023-11-21T13:32:22;11.60;93.20
69999;DHT22;57339;52.156;5.372;2023-11-21T13:34:49;11.50;93.20
69999;DHT22;57339;52.156;5.372;2023-11-21T13:37:16;11.50;93.20
69999;DHT22;57339;52.156;5.372;2023-11-21T13:39:44;11.40;93.10
69999;DHT22;57339;52.156;5.372;2023-11-21T13:42:11;11.40;93.20
69999;DHT22;57339;52.156;5.372;2023-11-21T13:44:38;11.30;93.10
69999;DHT22;57339;52.156;5.372;2023-11-21T13:47:05;11.30;93.10
69999;DHT22;57339;52.156;5.372;2023-11-21T13:49:32;11.30;93.10
69999;DHT22;57339;52.156;5.372;2023-11-21T13:51:59;11.20;93.10
69999;DHT22;57339;52.156;5.372;2023-11-21T13:54:26;11.20;93.10
69999;DHT22;57339;52.156;5.372;2023-11-21T13:56:52;11.20;93.10
69999;DHT22;57339;52.156;5.372;2023-11-21T13:59:19;11.10;93.10
69999;DHT22;57339;52.156;5.372;2023-11-21T14:01:46;11.10;93.10
69999;DHT22;57339;52.156;5.372;2023-11-21T14:04:15;11.10;93.10
69999;DHT22;57339;52.156;5.372;2023-11-21T14:06:46;11.00;93.50
69999;DHT22;57339;52.156;5.372;2023-11-21T14:09:18;11.10;93.10
69999;DHT22;57339;52.156;5.372;2023-11-21T14:11:45;11.00;93.10
69999;DHT22;57339;52.156;5.372;2023-11-21T14:14:14;10.90;93.00
69999;DHT22;57339;52.156;5.372;2023-11-21T14:16:41;10.90;93.00
69999;DHT22;57339;52.156;5.372;2023-11-21T14:19:08;10.90;93.00
69999;DHT22;57339;52.156;5.372;2023-11-21T14:21:35;11.00;93.10
69999;DHT22;57339;52.156;5.372;2023-11-21T14:24:02;10.90;93.00
69999;DHT22;57339;52.156;5.372;2023-11-21T14:26:29;10.90;93.00
69999;DHT22;57339;52.156;5.372;2023-11-21T14:28:55;10.90;92.90
69999;DHT22;57339;52.156;5.372;2023-11-21T14:31:22;10.80;92.90
69999;DHT22;57339;52.156;5.372;2023-11-21T14:33:49;10.80;93.00
69999;DHT22;57339;52.156;5.372;2023-11-21T14:36:16;10.70;93.00
69999;DHT22;57339;52.156;5.372;2023-11-21T14:38:46;10.70;93.00
69999;DHT22;57339;52.156;5.372;2023-11-21T14:41:15;10.70;92.90
69999;DHT22;57339;52.156;5.372;2023-11-21T14:43:42;10.70;92.90
69999;DHT22;57339;52.156;5.372;2023-11-21T14:46:09;10.70;93.00
69999;DHT22;57339;52.156;5.372;2023-11-21T14:48:36;10.60;93.00
69999;DHT22;57339;52.156;5.372;2023-11-21T14:51:03;10.60;92.80
69999;DHT22;57339;52.156;5.372;2023-11-21T14:53:30;10.50;92.90
69999;DHT22;57339;52.156;5.372;2023-11-21T14:55:57;10.40;92.80
69999;DHT22;57339;52.156;5.372;2023-11-21T14:58:24;10.40;92.90
69999;DHT22;57339;52.156;5.372;2023-11-21T15:01:00;10.30;92.90
69999;DHT22;57339;52.156;5.372;2023-11-21T15:03:28;10.30;92.90
69999;DHT22;57339;52.156;5.372;2023-11-21T15:05:56;10.30;92.80
69999;DHT22;57339;52.156;5.372;2023-11-21T15:08:23;10.20;92.50
69999;DHT22;57339;52.156;5.372;2023-11-21T15:10:51;10.20;92.70
69999;DHT22;57339;52.156;5.372;2023-11-21T15:13:18;10.20;92.60
69999;DHT22;57339;52.156;5.372;2023-11-21T15:15:46;10.20;92.60
69999;DHT22;57339;52.156;5.372;2023-11-21T15:18:15;10.20;92.50
69999;DHT22;57339;52.156;5.372;2023-11-21T15:20:42;10.20;92.70
69999;DHT22;57339;52.156;5.372;2023-11-21T15:23:09;10.10;92.40
69999;DHT22;57339;52.156;5.372;2023-11-21T15:25:36;10.10;92.30
69999;DHT22;57339;52.156;5.372;2023-11-21T15:28:03;10.10;92.00
69999;DHT22;57339;52.156;5.372;2023-11-21T15:30:31;10.00;92.00
69999;DHT22;57339;52.156;5.372;2023-11-21T15:32:59;9.90;91.70
69999;DHT22;57339;52.156;5.372;2023-11-21T15:35:26;9.90;91.80
69999;DHT22;57339;52.156;5.372;2023-11-21T15:37:53;9.90;91.60
69999;DHT22;57339;52.156;5.372;2023-11-21T15:40:20;9.80;91.40
69999;DHT22;57339;52.156;5.372;2023-11-21T15:42:47;9.90;91.90
69999;DHT22;57339;52.156;5.372;2023-11-21T15:45:17;9.80;91.50
69999;DHT22;57339;52.156;5.372;2023-11-21T15:47:46;9.80;91.60
69999;DHT22;57339;52.156;5.372;2023-11-21T15:50:13;9.90;91.60